sensor_id;sensor_type;location;lat;lon;timestamp;P1;durP1;ratioP1;P2;durP2;ratioP2
5543;SDS011;2795;47.652;13.128;2024-03-17T00:01:20;22.87;;;5.57;;
5543;SDS011;2795;47.652;13.128;2024-03-17T00:03:46;20.30;;;5.40;;
5543;SDS011;2795;47.652;13.128;2024-03-17T00:06:12;26.13;;;7.37;;
5543;SDS011;2795;47.652;13.128;2024-03-17T00:08:38;15.03;;;4.80;;
5543;SDS011;2795;47.652;13.128;2024-03-17T00:11:03;20.13;;;5.13;;
5543;SDS011;2795;47.652;13.128;2024-03-17T00:13:30;20.30;;;4.83;;
5543;SDS011;2795;47.652;13.128;2024-03-17T00:15:56;19.60;;;4.90;;
5543;SDS011;2795;47.652;13.128;2024-03-17T00:18:23;14.90;;;4.50;;
5543;SDS011;2795;47.652;13.128;2024-03-17T00:20:50;15.33;;;4.80;;
5543;SDS011;2795;47.652;13.128;2024-03-17T00:23:16;40.70;;;9.53;;
5543;SDS011;2795;47.652;13.128;2024-03-17T00:25:42;25.10;;;6.10;;
5543;SDS011;2795;47.652;13.128;2024-03-17T00:28:08;35.53;;;9.60;;
5543;SDS011;2795;47.652;13.128;2024-03-17T00:30:34;29.50;;;8.17;;
5543;SDS011;2795;47.652;13.128;2024-03-17T00:33:01;19.40;;;6.43;;
5543;SDS011;2795;47.652;13.128;2024-03-17T00:35:27;29.93;;;8.80;;
5543;SDS011;2795;47.652;13.128;2024-03-17T00:37:53;21.07;;;6.70;;
5543;SDS011;2795;47.652;13.128;2024-03-17T00:40:19;18.67;;;5.83;;
5543;SDS011;2795;47.652;13.128;2024-03-17T00:42:45;27.33;;;7.77;;
5543;SDS011;2795;47.652;13.128;2024-03-17T00:45:12;19.27;;;5.70;;
5543;SDS011;2795;47.652;13.128;2024-03-17T00:47:38;19.97;;;5.37;;
5543;SDS011;2795;47.652;13.128;2024-03-17T00:50:04;20.70;;;5.83;;
5543;SDS011;2795;47.652;13.128;2024-03-17T00:52:32;17.63;;;6.37;;
5543;SDS011;2795;47.652;13.128;2024-03-17T00:54:58;12.83;;;4.47;;
5543;SDS011;2795;47.652;13.128;2024-03-17T00:57:24;13.60;;;4.57;;
5543;SDS011;2795;47.652;13.128;2024-03-17T00:59:50;13.77;;;4.50;;
5543;SDS011;2795;47.652;13.128;2024-03-17T01:02:16;20.20;;;6.10;;
5543;SDS011;2795;47.652;13.128;2024-03-17T01:04:42;15.20;;;4.70;;
5543;SDS011;2795;47.652;13.128;2024-03-17T01:07:09;17.10;;;5.30;;
5543;SDS011;2795;47.652;13.128;2024-03-17T01:09:35;9.87;;;4.03;;
5543;SDS011;2795;47.652;13.128;2024-03-17T01:12:01;16.60;;;4.97;;
5543;SDS011;2795;47.652;13.128;2024-03-17T01:14:27;13.60;;;4.50;;
5543;SDS011;2795;47.652;13.128;2024-03-17T01:16:54;16.77;;;5.37;;
5543;SDS011;2795;47.652;13.128;2024-03-17T01:19:20;26.70;;;6.80;;
5543;SDS011;2795;47.652;13.128;2024-03-17T01:21:46;18.70;;;5.47;;
5543;SDS011;2795;47.652;13.128;2024-03-17T01:24:12;17.40;;;5.23;;
5543;SDS011;2795;47.652;13.128;2024-03-17T01:26:38;16.43;;;5.00;;
5543;SDS011;2795;47.652;13.128;2024-03-17T01:29:04;12.87;;;4.37;;
5543;SDS011;2795;47.652;13.128;2024-03-17T01:31:30;12.80;;;4.70;;
5543;SDS011;2795;47.652;13.128;2024-03-17T01:33:56;18.37;;;5.27;;
5543;SDS011;2795;47.652;13.128;2024-03-17T01:36:22;18.93;;;5.37;;
5543;SDS011;2795;47.652;13.128;2024-03-17T01:38:48;14.73;;;4.70;;
5543;SDS011;2795;47.652;13.128;2024-03-17T01:41:13;15.27;;;4.60;;
5543;SDS011;2795;47.652;13.128;2024-03-17T01:43:39;22.40;;;5.77;;
5543;SDS011;2795;47.652;13.128;2024-03-17T01:46:06;17.00;;;4.90;;
5543;SDS011;2795;47.652;13.128;2024-03-17T01:48:33;20.50;;;5.27;;
5543;SDS011;2795;47.652;13.128;2024-03-17T01:50:59;12.83;;;4.50;;
5543;SDS011;2795;47.652;13.128;2024-03-17T01:53:24;18.73;;;5.23;;
5543;SDS011;2795;47.652;13.128;2024-03-17T01:55:50;14.60;;;4.37;;
5543;SDS011;2795;47.652;13.128;2024-03-17T01:58:19;19.60;;;5.17;;
5543;SDS011;2795;47.652;13.128;2024-03-17T02:00:45;17.10;;;5.20;;
5543;SDS011;2795;47.652;13.128;2024-03-17T02:03:11;16.73;;;5.20;;
5543;SDS011;2795;47.652;13.128;2024-03-17T02:05:38;16.77;;;5.60;;
5543;SDS011;2795;47.652;13.128;2024-03-17T02:08:04;17.73;;;5.50;;
5543;SDS011;2795;47.652;13.128;2024-03-17T02:10:30;13.87;;;4.70;;
5543;SDS011;2795;47.652;13.128;2024-03-17T02:12:56;21.53;;;6.33;;
5543;SDS011;2795;47.652;13.128;2024-03-17T02:15:22;16.53;;;5.00;;
5543;SDS011;2795;47.652;13.128;2024-03-17T02:17:48;17.73;;;4.90;;
5543;SDS011;2795;47.652;13.128;2024-03-17T02:20:14;14.13;;;4.50;;
5543;SDS011;2795;47.652;13.128;2024-03-17T02:22:40;21.43;;;5.70;;
5543;SDS011;2795;47.652;13.128;2024-03-17T02:25:06;15.03;;;4.90;;
5543;SDS011;2795;47.652;13.128;2024-03-17T02:27:36;18.67;;;5.30;;
5543;SDS011;2795;47.652;13.128;2024-03-17T02:30:02;21.93;;;5.53;;
5543;SDS011;2795;47.652;13.128;2024-03-17T02:32:29;15.20;;;4.77;;
5543;SDS011;2795;47.652;13.128;2024-03-17T02:34:55;19.13;;;5.20;;
5543;SDS011;2795;47.652;13.128;2024-03-17T02:37:22;23.70;;;6.47;;
5543;SDS011;2795;47.652;13.128;2024-03-17T02:39:48;15.40;;;4.70;;
5543;SDS011;2795;47.652;13.128;2024-03-17T02:42:14;10.80;;;3.90;;
5543;SDS011;2795;47.652;13.128;2024-03-17T02:44:39;25.17;;;6.17;;
5543;SDS011;2795;47.652;13.128;2024-03-17T02:47:06;16.47;;;4.60;;
5543;SDS011;2795;47.652;13.128;2024-03-17T02:49:35;12.13;;;4.00;;
5543;SDS011;2795;47.652;13.128;2024-03-17T02:52:09;16.87;;;4.93;;
5543;SDS011;2795;47.652;13.128;2024-03-17T02:54:36;13.83;;;4.17;;
5543;SDS011;2795;47.652;13.128;2024-03-17T02:57:03;22.20;;;6.13;;
5543;SDS011;2795;47.652;13.128;2024-03-17T02:59:29;17.33;;;5.37;;
5543;SDS011;2795;47.652;13.128;2024-03-17T03:01:54;17.73;;;5.73;;
5543;SDS011;2795;47.652;13.128;2024-03-17T03:04:20;21.80;;;6.40;;
5543;SDS011;2795;47.652;13.128;2024-03-17T03:06:46;21.13;;;6.03;;
5543;SDS011;2795;47.652;13.128;2024-03-17T03:09:12;21.13;;;6.33;;
5543;SDS011;2795;47.652;13.128;2024-03-17T03:11:39;20.27;;;6.10;;
5543;SDS011;2795;47.652;13.128;2024-03-17T03:14:07;19.00;;;6.13;;
5543;SDS011;2795;47.652;13.128;2024-03-17T03:16:33;24.83;;;6.80;;
5543;SDS011;2795;47.652;13.128;2024-03-17T03:18:59;20.20;;;6.30;;
5543;SDS011;2795;47.652;13.128;2024-03-17T03:21:25;25.10;;;6.60;;
5543;SDS011;2795;47.652;13.128;2024-03-17T03:23:51;15.97;;;5.63;;
5543;SDS011;2795;47.652;13.128;2024-03-17T03:26:17;21.50;;;6.13;;
5543;SDS011;2795;47.652;13.128;2024-03-17T03:28:43;27.47;;;6.67;;
5543;SDS011;2795;47.652;13.128;2024-03-17T03:31:12;17.10;;;5.53;;
5543;SDS011;2795;47.652;13.128;2024-03-17T03:33:42;16.93;;;5.60;;
5543;SDS011;2795;47.652;13.128;2024-03-17T03:36:08;17.33;;;5.80;;
5543;SDS011;2795;47.652;13.128;2024-03-17T03:38:38;17.30;;;5.83;;
5543;SDS011;2795;47.652;13.128;2024-03-17T03:41:11;18.33;;;5.57;;
5543;SDS011;2795;47.652;13.128;2024-03-17T03:43:39;14.93;;;4.93;;
5543;SDS011;2795;47.652;13.128;2024-03-17T03:46:05;24.23;;;6.77;;
5543;SDS011;2795;47.652;13.128;2024-03-17T03:48:31;19.17;;;6.27;;
5543;SDS011;2795;47.652;13.128;2024-03-17T03:51:02;17.83;;;6.00;;
5543;SDS011;2795;47.652;13.128;2024-03-17T03:53:32;18.47;;;6.07;;
5543;SDS011;2795;47.652;13.128;2024-03-17T03:55:58;15.03;;;5.27;;
5543;SDS011;2795;47.652;13.128;2024-03-17T03:58:27;15.00;;;5.00;;
5543;SDS011;2795;47.652;13.128;2024-03-17T04:00:54;17.90;;;6.23;;
5543;SDS011;2795;47.652;13.128;2024-03-17T04:03:21;22.43;;;7.13;;
5543;SDS011;2795;47.652;13.128;2024-03-17T04:05:47;17.20;;;5.50;;
5543;SDS011;2795;47.652;13.128;2024-03-17T04:08:13;19.13;;;6.30;;
5543;SDS011;2795;47.652;13.128;2024-03-17T04:10:39;19.37;;;5.70;;
5543;SDS011;2795;47.652;13.128;2024-03-17T04:13:04;30.57;;;9.70;;
5543;SDS011;2795;47.652;13.128;2024-03-17T04:15:30;39.17;;;13.40;;
5543;SDS011;2795;47.652;13.128;2024-03-17T04:17:56;31.80;;;12.60;;
5543;SDS011;2795;47.652;13.128;2024-03-17T04:20:22;42.23;;;12.77;;
5543;SDS011;2795;47.652;13.128;2024-03-17T04:22:48;40.50;;;11.90;;
5543;SDS011;2795;47.652;13.128;2024-03-17T04:25:14;35.00;;;10.77;;
5543;SDS011;2795;47.652;13.128;2024-03-17T04:27:40;18.27;;;6.67;;
5543;SDS011;2795;47.652;13.128;2024-03-17T04:30:06;14.27;;;4.80;;
5543;SDS011;2795;47.652;13.128;2024-03-17T04:32:32;11.23;;;4.37;;
5543;SDS011;2795;47.652;13.128;2024-03-17T04:34:59;15.20;;;5.27;;
5543;SDS011;2795;47.652;13.128;2024-03-17T04:37:25;17.80;;;5.67;;
5543;SDS011;2795;47.652;13.128;2024-03-17T04:39:51;13.67;;;4.80;;
5543;SDS011;2795;47.652;13.128;2024-03-17T04:42:17;25.90;;;6.47;;
5543;SDS011;2795;47.652;13.128;2024-03-17T04:44:44;22.23;;;6.10;;
5543;SDS011;2795;47.652;13.128;2024-03-17T04:47:11;12.17;;;4.53;;
5543;SDS011;2795;47.652;13.128;2024-03-17T04:52:08;18.20;;;5.50;;
5543;SDS011;2795;47.652;13.128;2024-03-17T04:54:35;21.93;;;6.37;;
5543;SDS011;2795;47.652;13.128;2024-03-17T04:57:02;14.47;;;5.47;;
5543;SDS011;2795;47.652;13.128;2024-03-17T04:59:27;16.80;;;5.40;;
5543;SDS011;2795;47.652;13.128;2024-03-17T05:01:53;15.43;;;5.00;;
5543;SDS011;2795;47.652;13.128;2024-03-17T05:04:19;15.47;;;4.73;;
5543;SDS011;2795;47.652;13.128;2024-03-17T05:06:45;23.87;;;6.23;;
5543;SDS011;2795;47.652;13.128;2024-03-17T05:09:15;9.57;;;4.00;;
5543;SDS011;2795;47.652;13.128;2024-03-17T05:11:41;17.57;;;5.90;;
5543;SDS011;2795;47.652;13.128;2024-03-17T05:14:07;18.40;;;5.50;;
5543;SDS011;2795;47.652;13.128;2024-03-17T05:16:33;14.07;;;4.40;;
5543;SDS011;2795;47.652;13.128;2024-03-17T05:18:59;22.17;;;6.10;;
5543;SDS011;2795;47.652;13.128;2024-03-17T05:21:25;21.57;;;5.90;;
5543;SDS011;2795;47.652;13.128;2024-03-17T05:23:51;18.10;;;5.77;;
5543;SDS011;2795;47.652;13.128;2024-03-17T05:26:17;20.67;;;6.20;;
5543;SDS011;2795;47.652;13.128;2024-03-17T05:28:43;20.23;;;6.23;;
5543;SDS011;2795;47.652;13.128;2024-03-17T05:31:12;16.50;;;5.70;;
5543;SDS011;2795;47.652;13.128;2024-03-17T05:33:40;27.30;;;7.00;;
5543;SDS011;2795;47.652;13.128;2024-03-17T05:36:06;19.03;;;5.77;;
5543;SDS011;2795;47.652;13.128;2024-03-17T05:38:32;14.23;;;4.80;;
5543;SDS011;2795;47.652;13.128;2024-03-17T05:41:05;16.40;;;5.70;;
5543;SDS011;2795;47.652;13.128;2024-03-17T05:43:35;24.43;;;9.73;;
5543;SDS011;2795;47.652;13.128;2024-03-17T05:46:02;17.93;;;6.30;;
5543;SDS011;2795;47.652;13.128;2024-03-17T05:48:29;14.70;;;5.27;;
5543;SDS011;2795;47.652;13.128;2024-03-17T05:50:55;14.80;;;5.40;;
5543;SDS011;2795;47.652;13.128;2024-03-17T05:53:21;29.53;;;7.53;;
5543;SDS011;2795;47.652;13.128;2024-03-17T05:55:49;22.43;;;6.67;;
5543;SDS011;2795;47.652;13.128;2024-03-17T05:58:15;16.30;;;6.63;;
5543;SDS011;2795;47.652;13.128;2024-03-17T06:00:41;21.33;;;6.63;;
5543;SDS011;2795;47.652;13.128;2024-03-17T06:03:07;18.07;;;5.90;;
5543;SDS011;2795;47.652;13.128;2024-03-17T06:05:33;21.13;;;7.00;;
5543;SDS011;2795;47.652;13.128;2024-03-17T06:08:04;43.17;;;13.90;;
5543;SDS011;2795;47.652;13.128;2024-03-17T06:10:31;39.93;;;14.77;;
5543;SDS011;2795;47.652;13.128;2024-03-17T06:12:57;27.07;;;10.50;;
5543;SDS011;2795;47.652;13.128;2024-03-17T06:15:23;40.03;;;13.20;;
5543;SDS011;2795;47.652;13.128;2024-03-17T06:17:50;49.67;;;15.70;;
5543;SDS011;2795;47.652;13.128;2024-03-17T06:20:23;39.57;;;13.90;;
5543;SDS011;2795;47.652;13.128;2024-03-17T06:22:55;26.03;;;8.87;;
5543;SDS011;2795;47.652;13.128;2024-03-17T06:25:22;32.37;;;8.23;;
5543;SDS011;2795;47.652;13.128;2024-03-17T06:27:52;24.10;;;7.53;;
5543;SDS011;2795;47.652;13.128;2024-03-17T06:30:18;20.77;;;7.10;;
5543;SDS011;2795;47.652;13.128;2024-03-17T06:32:44;23.37;;;8.07;;
5543;SDS011;2795;47.652;13.128;2024-03-17T06:35:11;20.77;;;7.33;;
5543;SDS011;2795;47.652;13.128;2024-03-17T06:37:41;16.57;;;6.10;;
5543;SDS011;2795;47.652;13.128;2024-03-17T06:40:16;20.37;;;6.87;;
5543;SDS011;2795;47.652;13.128;2024-03-17T06:42:42;23.73;;;7.50;;
5543;SDS011;2795;47.652;13.128;2024-03-17T06:45:08;17.33;;;6.40;;
5543;SDS011;2795;47.652;13.128;2024-03-17T06:47:37;14.03;;;5.73;;
5543;SDS011;2795;47.652;13.128;2024-03-17T06:50:06;20.07;;;7.60;;
5543;SDS011;2795;47.652;13.128;2024-03-17T06:52:35;13.47;;;5.30;;
5543;SDS011;2795;47.652;13.128;2024-03-17T06:55:02;16.30;;;6.40;;
5543;SDS011;2795;47.652;13.128;2024-03-17T06:57:27;14.43;;;5.63;;
5543;SDS011;2795;47.652;13.128;2024-03-17T06:59:53;23.77;;;7.80;;
5543;SDS011;2795;47.652;13.128;2024-03-17T07:02:19;25.50;;;7.80;;
5543;SDS011;2795;47.652;13.128;2024-03-17T07:04:45;16.70;;;6.53;;
5543;SDS011;2795;47.652;13.128;2024-03-17T07:07:12;17.53;;;6.07;;
5543;SDS011;2795;47.652;13.128;2024-03-17T07:09:39;12.20;;;4.70;;
5543;SDS011;2795;47.652;13.128;2024-03-17T07:12:08;20.70;;;6.70;;
5543;SDS011;2795;47.652;13.128;2024-03-17T07:14:35;18.43;;;6.47;;
5543;SDS011;2795;47.652;13.128;2024-03-17T07:17:01;19.83;;;6.33;;
5543;SDS011;2795;47.652;13.128;2024-03-17T07:19:27;26.57;;;8.43;;
5543;SDS011;2795;47.652;13.128;2024-03-17T07:21:54;23.33;;;8.07;;
5543;SDS011;2795;47.652;13.128;2024-03-17T07:24:20;21.77;;;7.53;;
5543;SDS011;2795;47.652;13.128;2024-03-17T07:26:49;24.87;;;8.13;;
5543;SDS011;2795;47.652;13.128;2024-03-17T07:29:15;14.53;;;6.40;;
5543;SDS011;2795;47.652;13.128;2024-03-17T07:31:41;17.23;;;6.93;;
5543;SDS011;2795;47.652;13.128;2024-03-17T07:34:07;24.73;;;8.90;;
5543;SDS011;2795;47.652;13.128;2024-03-17T07:36:33;17.43;;;7.17;;
5543;SDS011;2795;47.652;13.128;2024-03-17T07:38:59;15.43;;;6.13;;
5543;SDS011;2795;47.652;13.128;2024-03-17T07:41:24;28.27;;;7.80;;
5543;SDS011;2795;47.652;13.128;2024-03-17T07:43:50;15.40;;;5.93;;
5543;SDS011;2795;47.652;13.128;2024-03-17T07:46:16;16.37;;;6.57;;
5543;SDS011;2795;47.652;13.128;2024-03-17T07:48:42;17.93;;;6.17;;
5543;SDS011;2795;47.652;13.128;2024-03-17T07:51:10;16.90;;;6.43;;
5543;SDS011;2795;47.652;13.128;2024-03-17T07:53:37;26.67;;;7.97;;
5543;SDS011;2795;47.652;13.128;2024-03-17T07:56:04;17.90;;;6.23;;
5543;SDS011;2795;47.652;13.128;2024-03-17T07:58:38;18.57;;;5.37;;
5543;SDS011;2795;47.652;13.128;2024-03-17T08:03:31;15.57;;;5.13;;
5543;SDS011;2795;47.652;13.128;2024-03-17T08:05:59;9.93;;;4.17;;
5543;SDS011;2795;47.652;13.128;2024-03-17T08:08:26;19.27;;;5.40;;
5543;SDS011;2795;47.652;13.128;2024-03-17T08:10:52;12.13;;;4.30;;
5543;SDS011;2795;47.652;13.128;2024-03-17T08:13:18;13.23;;;4.50;;
5543;SDS011;2795;47.652;13.128;2024-03-17T08:15:45;17.07;;;5.33;;
5543;SDS011;2795;47.652;13.128;2024-03-17T08:18:12;18.03;;;5.60;;
5543;SDS011;2795;47.652;13.128;2024-03-17T08:20:38;24.40;;;6.43;;
5543;SDS011;2795;47.652;13.128;2024-03-17T08:23:13;15.73;;;4.57;;
5543;SDS011;2795;47.652;13.128;2024-03-17T08:25:39;10.20;;;4.00;;
5543;SDS011;2795;47.652;13.128;2024-03-17T08:28:12;14.97;;;4.73;;
5543;SDS011;2795;47.652;13.128;2024-03-17T08:30:37;21.73;;;6.07;;
5543;SDS011;2795;47.652;13.128;2024-03-17T08:33:03;21.70;;;6.10;;
5543;SDS011;2795;47.652;13.128;2024-03-17T08:35:29;16.50;;;5.30;;
5543;SDS011;2795;47.652;13.128;2024-03-17T08:37:55;8.93;;;3.73;;
5543;SDS011;2795;47.652;13.128;2024-03-17T08:40:21;15.10;;;4.83;;
5543;SDS011;2795;47.652;13.128;2024-03-17T08:42:48;15.90;;;5.07;;
5543;SDS011;2795;47.652;13.128;2024-03-17T08:45:14;9.30;;;3.90;;
5543;SDS011;2795;47.652;13.128;2024-03-17T08:47:41;13.20;;;4.30;;
5543;SDS011;2795;47.652;13.128;2024-03-17T08:50:08;15.13;;;4.40;;
5543;SDS011;2795;47.652;13.128;2024-03-17T08:52:34;15.67;;;4.70;;
5543;SDS011;2795;47.652;13.128;2024-03-17T08:55:00;21.30;;;5.23;;
5543;SDS011;2795;47.652;13.128;2024-03-17T08:57:29;11.43;;;3.60;;
5543;SDS011;2795;47.652;13.128;2024-03-17T08:59:55;16.80;;;4.40;;
5543;SDS011;2795;47.652;13.128;2024-03-17T09:02:21;15.90;;;4.70;;
5543;SDS011;2795;47.652;13.128;2024-03-17T09:04:47;11.27;;;3.20;;
5543;SDS011;2795;47.652;13.128;2024-03-17T09:07:13;12.30;;;3.47;;
5543;SDS011;2795;47.652;13.128;2024-03-17T09:09:46;20.67;;;5.43;;
5543;SDS011;2795;47.652;13.128;2024-03-17T09:12:12;15.87;;;3.23;;
5543;SDS011;2795;47.652;13.128;2024-03-17T09:14:38;20.87;;;5.33;;
5543;SDS011;2795;47.652;13.128;2024-03-17T09:17:06;13.03;;;3.80;;
5543;SDS011;2795;47.652;13.128;2024-03-17T09:19:32;10.53;;;3.23;;
5543;SDS011;2795;47.652;13.128;2024-03-17T09:21:58;19.87;;;5.03;;
5543;SDS011;2795;47.652;13.128;2024-03-17T09:24:24;16.03;;;4.37;;
5543;SDS011;2795;47.652;13.128;2024-03-17T09:26:51;11.83;;;3.50;;
5543;SDS011;2795;47.652;13.128;2024-03-17T09:29:18;19.43;;;5.10;;
5543;SDS011;2795;47.652;13.128;2024-03-17T09:31:44;12.90;;;3.80;;
5543;SDS011;2795;47.652;13.128;2024-03-17T09:34:10;14.43;;;4.27;;
5543;SDS011;2795;47.652;13.128;2024-03-17T09:36:35;10.83;;;3.10;;
5543;SDS011;2795;47.652;13.128;2024-03-17T09:39:01;11.40;;;3.40;;
5543;SDS011;2795;47.652;13.128;2024-03-17T09:41:29;12.80;;;3.47;;
5543;SDS011;2795;47.652;13.128;2024-03-17T09:43:56;16.23;;;3.13;;
5543;SDS011;2795;47.652;13.128;2024-03-17T09:46:23;12.50;;;3.50;;
5543;SDS011;2795;47.652;13.128;2024-03-17T09:48:49;10.70;;;3.20;;
5543;SDS011;2795;47.652;13.128;2024-03-17T09:51:18;9.90;;;3.13;;
5543;SDS011;2795;47.652;13.128;2024-03-17T09:53:45;14.37;;;4.20;;
5543;SDS011;2795;47.652;13.128;2024-03-17T09:56:11;8.93;;;2.83;;
5543;SDS011;2795;47.652;13.128;2024-03-17T09:58:39;7.43;;;2.20;;
5543;SDS011;2795;47.652;13.128;2024-03-17T10:01:04;14.30;;;3.83;;
5543;SDS011;2795;47.652;13.128;2024-03-17T10:06:22;18.33;;;4.43;;
5543;SDS011;2795;47.652;13.128;2024-03-17T10:08:49;12.90;;;3.67;;
5543;SDS011;2795;47.652;13.128;2024-03-17T10:11:41;22.13;;;5.47;;
5543;SDS011;2795;47.652;13.128;2024-03-17T10:14:09;13.00;;;3.43;;
5543;SDS011;2795;47.652;13.128;2024-03-17T10:16:36;11.10;;;3.50;;
5543;SDS011;2795;47.652;13.128;2024-03-17T10:21:39;11.87;;;3.30;;
5543;SDS011;2795;47.652;13.128;2024-03-17T10:26:44;10.67;;;3.17;;
5543;SDS011;2795;47.652;13.128;2024-03-17T10:29:19;7.60;;;2.50;;
5543;SDS011;2795;47.652;13.128;2024-03-17T10:32:01;10.80;;;3.13;;
5543;SDS011;2795;47.652;13.128;2024-03-17T10:34:29;16.90;;;3.97;;
5543;SDS011;2795;47.652;13.128;2024-03-17T10:37:16;14.33;;;3.63;;
5543;SDS011;2795;47.652;13.128;2024-03-17T10:39:45;10.23;;;2.83;;
5543;SDS011;2795;47.652;13.128;2024-03-17T10:42:13;5.00;;;1.93;;
5543;SDS011;2795;47.652;13.128;2024-03-17T10:44:40;9.33;;;2.63;;
5543;SDS011;2795;47.652;13.128;2024-03-17T10:47:07;12.53;;;3.30;;
5543;SDS011;2795;47.652;13.128;2024-03-17T10:49:47;13.63;;;3.70;;
5543;SDS011;2795;47.652;13.128;2024-03-17T10:52:16;5.83;;;2.13;;
5543;SDS011;2795;47.652;13.128;2024-03-17T10:54:46;11.30;;;3.20;;
5543;SDS011;2795;47.652;13.128;2024-03-17T10:57:36;14.13;;;3.80;;
5543;SDS011;2795;47.652;13.128;2024-03-17T11:00:14;12.80;;;3.37;;
5543;SDS011;2795;47.652;13.128;2024-03-17T11:02:43;18.20;;;4.43;;
5543;SDS011;2795;47.652;13.128;2024-03-17T11:05:11;18.13;;;4.40;;
5543;SDS011;2795;47.652;13.128;2024-03-17T11:07:39;8.83;;;2.60;;
5543;SDS011;2795;47.652;13.128;2024-03-17T11:10:14;12.50;;;3.30;;
5543;SDS011;2795;47.652;13.128;2024-03-17T11:17:48;10.93;;;3.33;;
5543;SDS011;2795;47.652;13.128;2024-03-17T11:20:26;8.33;;;2.57;;
5543;SDS011;2795;47.652;13.128;2024-03-17T11:22:59;7.00;;;2.37;;
5543;SDS011;2795;47.652;13.128;2024-03-17T11:27:54;6.30;;;2.30;;
5543;SDS011;2795;47.652;13.128;2024-03-17T11:39:03;13.47;;;3.13;;
5543;SDS011;2795;47.652;13.128;2024-03-17T11:41:53;10.60;;;3.30;;
5543;SDS011;2795;47.652;13.128;2024-03-17T11:47:01;7.97;;;2.67;;
5543;SDS011;2795;47.652;13.128;2024-03-17T11:49:31;11.10;;;3.60;;
5543;SDS011;2795;47.652;13.128;2024-03-17T11:52:02;8.87;;;3.03;;
5543;SDS011;2795;47.652;13.128;2024-03-17T11:54:32;12.23;;;3.73;;
5543;SDS011;2795;47.652;13.128;2024-03-17T11:57:03;7.23;;;2.87;;
5543;SDS011;2795;47.652;13.128;2024-03-17T11:59:33;8.57;;;3.07;;
5543;SDS011;2795;47.652;13.128;2024-03-17T12:01:59;8.07;;;2.93;;
5543;SDS011;2795;47.652;13.128;2024-03-17T12:04:26;11.00;;;3.50;;
5543;SDS011;2795;47.652;13.128;2024-03-17T12:06:52;9.47;;;3.33;;
5543;SDS011;2795;47.652;13.128;2024-03-17T12:09:21;21.17;;;5.30;;
5543;SDS011;2795;47.652;13.128;2024-03-17T12:12:03;13.60;;;3.97;;
5543;SDS011;2795;47.652;13.128;2024-03-17T12:14:30;12.27;;;3.63;;
5543;SDS011;2795;47.652;13.128;2024-03-17T12:17:00;10.40;;;3.23;;
5543;SDS011;2795;47.652;13.128;2024-03-17T12:19:27;12.10;;;3.50;;
5543;SDS011;2795;47.652;13.128;2024-03-17T12:21:54;8.50;;;2.87;;
5543;SDS011;2795;47.652;13.128;2024-03-17T12:24:24;14.87;;;3.83;;
5543;SDS011;2795;47.652;13.128;2024-03-17T12:26:51;12.33;;;3.90;;
5543;SDS011;2795;47.652;13.128;2024-03-17T12:32:04;14.80;;;4.40;;
5543;SDS011;2795;47.652;13.128;2024-03-17T12:34:31;16.63;;;3.63;;
5543;SDS011;2795;47.652;13.128;2024-03-17T12:36:58;16.33;;;4.50;;
5543;SDS011;2795;47.652;13.128;2024-03-17T12:42:06;14.53;;;4.03;;
5543;SDS011;2795;47.652;13.128;2024-03-17T12:44:34;12.00;;;3.63;;
5543;SDS011;2795;47.652;13.128;2024-03-17T12:47:02;15.83;;;4.00;;
5543;SDS011;2795;47.652;13.128;2024-03-17T12:49:29;13.00;;;3.90;;
5543;SDS011;2795;47.652;13.128;2024-03-17T12:51:56;22.00;;;4.47;;
5543;SDS011;2795;47.652;13.128;2024-03-17T12:54:23;20.33;;;5.77;;
5543;SDS011;2795;47.652;13.128;2024-03-17T12:56:50;18.73;;;5.30;;
5543;SDS011;2795;47.652;13.128;2024-03-17T12:59:41;25.13;;;11.70;;
5543;SDS011;2795;47.652;13.128;2024-03-17T13:02:26;16.13;;;4.87;;
5543;SDS011;2795;47.652;13.128;2024-03-17T13:07:44;15.83;;;3.60;;
5543;SDS011;2795;47.652;13.128;2024-03-17T13:10:12;15.43;;;4.37;;
5543;SDS011;2795;47.652;13.128;2024-03-17T13:12:39;12.93;;;4.23;;
5543;SDS011;2795;47.652;13.128;2024-03-17T13:15:05;20.73;;;5.30;;
5543;SDS011;2795;47.652;13.128;2024-03-17T13:17:31;15.77;;;4.60;;
5543;SDS011;2795;47.652;13.128;2024-03-17T13:20:00;15.73;;;4.30;;
5543;SDS011;2795;47.652;13.128;2024-03-17T13:22:26;12.67;;;4.20;;
5543;SDS011;2795;47.652;13.128;2024-03-17T13:24:52;14.27;;;4.70;;
5543;SDS011;2795;47.652;13.128;2024-03-17T13:27:17;21.30;;;5.73;;
5543;SDS011;2795;47.652;13.128;2024-03-17T13:29:47;14.47;;;4.50;;
5543;SDS011;2795;47.652;13.128;2024-03-17T13:32:14;13.20;;;4.50;;
5543;SDS011;2795;47.652;13.128;2024-03-17T13:34:41;18.87;;;5.20;;
5543;SDS011;2795;47.652;13.128;2024-03-17T13:37:06;11.83;;;4.10;;
5543;SDS011;2795;47.652;13.128;2024-03-17T13:39:32;16.67;;;5.17;;
5543;SDS011;2795;47.652;13.128;2024-03-17T13:42:00;14.10;;;4.43;;
5543;SDS011;2795;47.652;13.128;2024-03-17T13:44:32;13.03;;;4.60;;
5543;SDS011;2795;47.652;13.128;2024-03-17T13:46:58;11.30;;;4.17;;
5543;SDS011;2795;47.652;13.128;2024-03-17T13:49:26;13.83;;;3.70;;
5543;SDS011;2795;47.652;13.128;2024-03-17T13:51:53;18.00;;;5.47;;
5543;SDS011;2795;47.652;13.128;2024-03-17T13:54:19;12.93;;;4.50;;
5543;SDS011;2795;47.652;13.128;2024-03-17T13:56:47;13.60;;;4.50;;
5543;SDS011;2795;47.652;13.128;2024-03-17T13:59:14;20.70;;;5.60;;
5543;SDS011;2795;47.652;13.128;2024-03-17T14:01:43;25.03;;;4.70;;
5543;SDS011;2795;47.652;13.128;2024-03-17T14:04:12;16.07;;;4.27;;
5543;SDS011;2795;47.652;13.128;2024-03-17T14:06:41;18.53;;;5.10;;
5543;SDS011;2795;47.652;13.128;2024-03-17T14:09:15;17.53;;;5.13;;
5543;SDS011;2795;47.652;13.128;2024-03-17T14:11:45;16.93;;;5.23;;
5543;SDS011;2795;47.652;13.128;2024-03-17T14:14:14;24.53;;;5.30;;
5543;SDS011;2795;47.652;13.128;2024-03-17T14:16:40;10.23;;;4.00;;
5543;SDS011;2795;47.652;13.128;2024-03-17T14:19:09;12.80;;;4.17;;
5543;SDS011;2795;47.652;13.128;2024-03-17T14:21:35;14.03;;;4.47;;
5543;SDS011;2795;47.652;13.128;2024-03-17T14:24:01;22.97;;;5.60;;
5543;SDS011;2795;47.652;13.128;2024-03-17T14:26:31;12.20;;;3.97;;
5543;SDS011;2795;47.652;13.128;2024-03-17T14:28:57;15.00;;;4.57;;
5543;SDS011;2795;47.652;13.128;2024-03-17T14:31:25;17.00;;;4.73;;
5543;SDS011;2795;47.652;13.128;2024-03-17T14:33:51;21.37;;;5.17;;
5543;SDS011;2795;47.652;13.128;2024-03-17T14:36:17;12.63;;;4.30;;
5543;SDS011;2795;47.652;13.128;2024-03-17T14:38:43;16.37;;;4.47;;
5543;SDS011;2795;47.652;13.128;2024-03-17T14:41:09;17.27;;;5.13;;
5543;SDS011;2795;47.652;13.128;2024-03-17T14:43:36;16.23;;;4.30;;
5543;SDS011;2795;47.652;13.128;2024-03-17T14:46:04;12.47;;;4.47;;
5543;SDS011;2795;47.652;13.128;2024-03-17T14:48:30;12.13;;;4.27;;
5543;SDS011;2795;47.652;13.128;2024-03-17T14:50:55;13.33;;;4.20;;
5543;SDS011;2795;47.652;13.128;2024-03-17T14:53:21;15.27;;;4.40;;
5543;SDS011;2795;47.652;13.128;2024-03-17T14:55:47;16.37;;;4.67;;
5543;SDS011;2795;47.652;13.128;2024-03-17T14:58:12;16.70;;;4.57;;
5543;SDS011;2795;47.652;13.128;2024-03-17T15:00:38;11.60;;;3.80;;
5543;SDS011;2795;47.652;13.128;2024-03-17T15:03:04;14.37;;;4.20;;
5543;SDS011;2795;47.652;13.128;2024-03-17T15:05:33;14.83;;;4.30;;
5543;SDS011;2795;47.652;13.128;2024-03-17T15:07:58;13.77;;;4.20;;
5543;SDS011;2795;47.652;13.128;2024-03-17T15:10:24;11.13;;;3.93;;
5543;SDS011;2795;47.652;13.128;2024-03-17T15:12:51;13.30;;;4.10;;
5543;SDS011;2795;47.652;13.128;2024-03-17T15:15:16;14.30;;;4.10;;
5543;SDS011;2795;47.652;13.128;2024-03-17T15:17:42;26.03;;;8.13;;
5543;SDS011;2795;47.652;13.128;2024-03-17T15:20:10;17.10;;;4.47;;
5543;SDS011;2795;47.652;13.128;2024-03-17T15:22:46;19.63;;;4.93;;
5543;SDS011;2795;47.652;13.128;2024-03-17T15:25:12;12.27;;;3.80;;
5543;SDS011;2795;47.652;13.128;2024-03-17T15:27:42;13.43;;;3.90;;
5543;SDS011;2795;47.652;13.128;2024-03-17T15:30:14;40.00;;;5.97;;